^^
Station Historical Data
Daily Summary for May 3, 2021 Units:  English    Metric   Both
Daily Weekly Monthly Yearly
  High: Low: Average:
Temperature: 55.9 °F 46.2 °F 50.5 °F
Dew Point: 50.3 °F 44.3 °F 47 °F
Humidity: 94% 75% 88%
Wind Speed: 6mph 0mph 1.9mph
Wind Gust: 16mph - -
Wind- - South
Pressure: 29.67 in 29.58 in -
Precipitation: 0.09 in    
 
 
Tabular Data for May 3, 2021
Time Temperature Dew Point Pressure Wind Wind Speed Wind Gust Humidity Rainfall Rate (Hourly) solar
00:00 55.9 °F 49.1 °F 29.64 in ENE 3 mph 3 mph 78% 0.00 in 0 W/m2
00:05 55.9 °F 48.8 °F 29.64 in NNE 3 mph 3 mph 77% 0.00 in 0 W/m2
00:10 55.7 °F 47.9 °F 29.64 in NNW 3 mph 5 mph 75% 0.00 in 0 W/m2
00:15 54.6 °F 47.2 °F 29.65 in NE 3 mph 5 mph 76% 0.00 in 0 W/m2
00:20 53.7 °F 47 °F 29.65 in North 3 mph 5 mph 78% 0.00 in 0 W/m2
00:25 53 °F 46.7 °F 29.67 in North 3 mph 5 mph 79% 0.00 in 0 W/m2
00:30 52.4 °F 46.4 °F 29.66 in North 3 mph 3 mph 80% 0.00 in 0 W/m2
00:35 52.2 °F 46.5 °F 29.67 in NNW 3 mph 3 mph 81% 0.00 in 0 W/m2
00:40 52.2 °F 46.9 °F 29.66 in East 3 mph 4 mph 82% 0.00 in 0 W/m2
00:45 52.2 °F 46.9 °F 29.66 in ENE 3 mph 5 mph 82% 0.00 in 0 W/m2
00:50 52.6 °F 47.6 °F 29.66 in NE 4 mph 7 mph 83% 0.00 in 0 W/m2
00:55 53.1 °F 47.7 °F 29.66 in NE 5 mph 10 mph 82% 0.00 in 0 W/m2
01:00 53.5 °F 47.8 °F 29.66 in East 5 mph 5 mph 81% 0.00 in 0 W/m2
01:05 53.8 °F 47.8 °F 29.66 in East 5 mph 5 mph 80% 0.00 in 0 W/m2
01:10 54 °F 48 °F 29.66 in East 6 mph 6 mph 80% 0.00 in 0 W/m2
01:15 54.2 °F 47.8 °F 29.65 in ENE 6 mph 6 mph 79% 0.00 in 0 W/m2
01:20 54.2 °F 47.8 °F 29.65 in East 5 mph 5 mph 79% 0.00 in 0 W/m2
01:25 54.2 °F 47.8 °F 29.65 in ESE 5 mph 16 mph 79% 0.00 in 0 W/m2
01:30 54.3 °F 47.9 °F 29.65 in ESE 6 mph 6 mph 79% 0.00 in 0 W/m2
01:35 54.3 °F 47.9 °F 29.65 in ESE 6 mph 7 mph 79% 0.00 in 0 W/m2
01:40 54.2 °F 47.8 °F 29.65 in East 5 mph 5 mph 79% 0.00 in 0 W/m2
01:45 54.2 °F 47.8 °F 29.65 in ESE 5 mph 6 mph 79% 0.00 in 0 W/m2
01:50 54.2 °F 47.8 °F 29.65 in East 5 mph 5 mph 79% 0.00 in 0 W/m2
01:55 54.1 °F 48.1 °F 29.65 in ENE 4 mph 5 mph 80% 0.00 in 0 W/m2
02:00 54 °F 48 °F 29.64 in East 4 mph 4 mph 80% 0.00 in 0 W/m2
02:05 53.9 °F 48.2 °F 29.64 in ESE 4 mph 4 mph 81% 0.00 in 0 W/m2
02:10 53.7 °F 48 °F 29.64 in East 5 mph 5 mph 81% 0.00 in 0 W/m2
02:15 53.6 °F 47.9 °F 29.64 in ENE 5 mph 5 mph 81% 0.00 in 0 W/m2
02:20 53.5 °F 47.8 °F 29.63 in ESE 4 mph 4 mph 81% 0.00 in 0 W/m2
02:25 53.4 °F 47.7 °F 29.63 in NE 3 mph 4 mph 81% 0.00 in 0 W/m2
02:30 53.3 °F 47.6 °F 29.63 in ESE 3 mph 3 mph 81% 0.00 in 0 W/m2
02:35 53.2 °F 47.5 °F 29.63 in ESE 2 mph 3 mph 81% 0.00 in 0 W/m2
02:40 53.1 °F 47.4 °F 29.63 in East 2 mph 3 mph 81% 0.00 in 0 W/m2
02:45 53.1 °F 47.4 °F 29.62 in East 3 mph 3 mph 81% 0.00 in 0 W/m2
02:50 53 °F 47.3 °F 29.62 in East 3 mph 3 mph 81% 0.00 in 0 W/m2
02:55 52.9 °F 47.2 °F 29.62 in ESE 2 mph 4 mph 81% 0.00 in 0 W/m2
03:00 52.9 °F 47.6 °F 29.62 in East 3 mph 3 mph 82% 0.00 in 0 W/m2
03:05 52.9 °F 47.6 °F 29.62 in ESE 3 mph 3 mph 82% 0.00 in 0 W/m2
03:10 52.9 °F 47.6 °F 29.62 in East 3 mph 3 mph 82% 0.00 in 0 W/m2
03:15 52.9 °F 47.6 °F 29.62 in ESE 2 mph 3 mph 82% 0.00 in 0 W/m2
03:20 52.9 °F 47.6 °F 29.62 in ESE 2 mph 3 mph 82% 0.00 in 0 W/m2
03:25 52.8 °F 47.5 °F 29.62 in ESE 2 mph 3 mph 82% 0.00 in 0 W/m2
03:30 52.7 °F 47.7 °F 29.62 in ESE 3 mph 3 mph 83% 0.00 in 0 W/m2
03:35 52.7 °F 47.7 °F 29.62 in ESE 3 mph 3 mph 83% 0.00 in 0 W/m2
03:40 52.6 °F 47.3 °F 29.61 in East 2 mph 2 mph 82% 0.00 in 0 W/m2
03:45 52.5 °F 47.2 °F 29.61 in East 2 mph 2 mph 82% 0.00 in 0 W/m2
03:50 52.4 °F 47.1 °F 29.61 in ESE 2 mph 2 mph 82% 0.00 in 0 W/m2
03:55 52.3 °F 47 °F 29.61 in ESE 2 mph 2 mph 82% 0.00 in 0 W/m2
04:00 52.2 °F 47.2 °F 29.61 in SE 2 mph 2 mph 83% 0.00 in 0 W/m2
04:05 52.1 °F 47.1 °F 29.62 in SE 3 mph 3 mph 83% 0.00 in 0 W/m2
04:10 52 °F 47.3 °F 29.61 in SE 3 mph 4 mph 84% 0.00 in 0 W/m2
04:15 51.9 °F 46.9 °F 29.62 in SE 3 mph 4 mph 83% 0.00 in 0 W/m2
04:20 51.7 °F 46.7 °F 29.62 in SE 2 mph 2 mph 83% 0.00 in 0 W/m2
04:25 51.7 °F 47 °F 29.62 in SE 2 mph 3 mph 84% 0.00 in 0 W/m2
04:30 51.6 °F 47.2 °F 29.62 in ESE 2 mph 2 mph 85% 0.00 in 0 W/m2
04:35 51.5 °F 46.8 °F 29.62 in SE 2 mph 2 mph 84% 0.00 in 0 W/m2
04:40 51.4 °F 46.7 °F 29.62 in SE 1 mph 1 mph 84% 0.00 in 0 W/m2
04:45 51.2 °F 46.5 °F 29.62 in SSE 1 mph 1 mph 84% 0.00 in 0 W/m2
04:50 51.1 °F 46.4 °F 29.62 in SE 1 mph 1 mph 84% 0.00 in 0 W/m2
04:55 51 °F 46.6 °F 29.62 in SE 1 mph 1 mph 85% 0.00 in 0 W/m2
05:00 51 °F 46.6 °F 29.62 in Calm     85% 0.00 in 0 W/m2
05:05 51 °F 46.6 °F 29.62 in Calm     85% 0.00 in 0 W/m2
05:10 50.9 °F 46.6 °F 29.62 in Calm     85% 0.00 in 0 W/m2
05:15 50.9 °F 46.6 °F 29.62 in Calm     85% 0.00 in 0 W/m2
05:20 50.9 °F 46.6 °F 29.62 in Calm     85% 0.00 in 0 W/m2
05:25 50.9 °F 46.6 °F 29.62 in Calm     85% 0.00 in 0 W/m2
05:30 50.9 °F 46.6 °F 29.62 in Calm     85% 0.00 in 0 W/m2
05:35 50.9 °F 46.9 °F 29.62 in Calm     86% 0.00 in 0 W/m2
05:40 50.9 °F 46.9 °F 29.62 in Calm   1 mph 86% 0.00 in 0 W/m2
05:45 51 °F 47 °F 29.62 in Calm   1 mph 86% 0.00 in 0 W/m2
05:50 51 °F 47 °F 29.62 in Calm     86% 0.00 in 0 W/m2
05:55 51.1 °F 47.1 °F 29.62 in Calm     86% 0.00 in 0 W/m2
06:00 51.1 °F 47.1 °F 29.62 in Calm   1 mph 86% 0.00 in 0 W/m2
06:05 51.1 °F 47.1 °F 29.62 in Calm   1 mph 86% 0.00 in 0 W/m2
06:10 51.2 °F 47.2 °F 29.62 in Calm     86% 0.00 in 0 W/m2
06:15 51.3 °F 47.3 °F 29.62 in Calm     86% 0.00 in 0 W/m2
06:20 51.4 °F 47.4 °F 29.62 in Calm     86% 0.00 in 0 W/m2
06:25 51.4 °F 47.4 °F 29.62 in Calm   1 mph 86% 0.00 in 0 W/m2
06:30 51.5 °F 47.8 °F 29.63 in Calm     87% 0.00 in 0 W/m2
06:35 51.5 °F 47.8 °F 29.63 in Calm   1 mph 87% 0.00 in 5 W/m2
06:40 51.6 °F 47.9 °F 29.63 in Calm   1 mph 87% 0.00 in 7 W/m2
06:45 51.6 °F 47.5 °F 29.63 in Calm   1 mph 86% 0.00 in 9 W/m2
06:50 51.7 °F 47.6 °F 29.63 in Calm     86% 0.00 in 9 W/m2
06:55 51.7 °F 47.6 °F 29.62 in Calm     86% 0.00 in 14 W/m2
07:00 51.8 °F 47.7 °F 29.62 in Calm   1 mph 86% 0.00 in 19 W/m2
07:05 51.8 °F 47.7 °F 29.62 in Calm   1 mph 86% 0.00 in 21 W/m2
07:10 51.9 °F 48.2 °F 29.62 in Calm     87% 0.00 in 19 W/m2
07:15 51.9 °F 47.8 °F 29.62 in Calm     86% 0.00 in 18 W/m2
07:20 51.9 °F 47.8 °F 29.63 in Calm     86% 0.00 in 23 W/m2
07:25 51.9 °F 47.8 °F 29.62 in Calm   1 mph 86% 0.00 in 26 W/m2
07:30 52 °F 47.9 °F 29.62 in Calm     86% 0.00 in 33 W/m2
07:35 52.1 °F 48 °F 29.62 in Calm     86% 0.00 in 44 W/m2
07:40 52.1 °F 48 °F 29.63 in Calm     86% 0.00 in 49 W/m2
07:45 52.2 °F 48.1 °F 29.62 in Calm     86% 0.00 in 46 W/m2
07:50 52.2 °F 48.1 °F 29.62 in Calm   1 mph 86% 0.00 in 51 W/m2
07:55 52.3 °F 48.2 °F 29.63 in SE 1 mph 2 mph 86% 0.00 in 67 W/m2
08:00 52.4 °F 48.3 °F 29.62 in SSE 1 mph 1 mph 86% 0.00 in 77 W/m2
08:05 52.5 °F 48.4 °F 29.63 in Calm   1 mph 86% 0.00 in 111 W/m2
08:10 52.6 °F 48.8 °F 29.63 in Calm     87% 0.00 in 114 W/m2
08:15 52.8 °F 49 °F 29.63 in Calm   1 mph 87% 0.00 in 121 W/m2
08:20 52.9 °F 49.1 °F 29.63 in Calm   1 mph 87% 0.00 in 121 W/m2
08:25 53.2 °F 49.4 °F 29.63 in Calm   1 mph 87% 0.00 in 121 W/m2
08:30 53.2 °F 49.4 °F 29.63 in Calm   1 mph 87% 0.00 in 125 W/m2
08:35 53.3 °F 49.5 °F 29.62 in Calm   1 mph 87% 0.00 in 148 W/m2
08:40 53.4 °F 49.3 °F 29.63 in Calm     86% 0.00 in 163 W/m2
08:45 53.5 °F 49.4 °F 29.62 in Calm     86% 0.00 in 121 W/m2
08:50 53.5 °F 49.4 °F 29.63 in Calm     86% 0.00 in 128 W/m2
08:55 53.7 °F 49.6 °F 29.63 in Calm   1 mph 86% 0.00 in 137 W/m2
09:00 53.9 °F 49.8 °F 29.63 in Calm   2 mph 86% 0.00 in 149 W/m2
09:05 54.1 °F 50 °F 29.63 in Calm   2 mph 86% 0.00 in 167 W/m2
09:10 54.3 °F 50.2 °F 29.63 in Calm   1 mph 86% 0.00 in 146 W/m2
09:15 54.4 °F 50.3 °F 29.63 in SSE 1 mph 1 mph 86% 0.00 in 130 W/m2
09:20 54.5 °F 50.1 °F 29.63 in Calm   1 mph 85% 0.00 in 97 W/m2
09:25 54.5 °F 50.1 °F 29.63 in Calm   1 mph 85% 0.00 in 84 W/m2
09:30 54.5 °F 50.1 °F 29.63 in SSE 1 mph 1 mph 85% 0.00 in 83 W/m2
09:35 54.5 °F 50.1 °F 29.63 in SSE 1 mph 1 mph 85% 0.00 in 74 W/m2
09:40 54.5 °F 50.1 °F 29.63 in SSE 1 mph 2 mph 85% 0.00 in 67 W/m2
09:45 54.5 °F 50.1 °F 29.63 in SSE 1 mph 2 mph 85% 0.00 in 51 W/m2
09:50 54.5 °F 50.1 °F 29.63 in SSE 1 mph 1 mph 85% 0.00 in 47 W/m2
09:55 54.5 °F 50.1 °F 29.63 in South 1 mph 3 mph 85% 0.00 in 65 W/m2
10:00 54.5 °F 50.1 °F 29.63 in NNW 2 mph 2 mph 85% 0.00 in 93 W/m2
10:05 54.2 °F 49.5 °F 29.64 in NW 3 mph 3 mph 84% 0.00 in 107 W/m2
10:10 53.9 °F 49.2 °F 29.64 in NNW 3 mph 3 mph 84% 0.00 in 97 W/m2
10:15 53.6 °F 48.9 °F 29.63 in NNW 2 mph 3 mph 84% 0.00 in 65 W/m2
10:20 53 °F 48 °F 29.63 in NNW 3 mph 4 mph 83% 0.00 in 84 W/m2
10:25 52.3 °F 47.3 °F 29.63 in NNW 3 mph 4 mph 83% 0.00 in 95 W/m2
10:30 52 °F 47 °F 29.64 in NNW 3 mph 3 mph 83% 0.00 in 77 W/m2
10:35 51.6 °F 46.6 °F 29.64 in NNW 2 mph 3 mph 83% 0.00 in 102 W/m2
10:40 51.3 °F 46.6 °F 29.63 in NNW 2 mph 2 mph 84% 0.00 in 84 W/m2
10:45 51 °F 46.3 °F 29.63 in NNW 2 mph 2 mph 84% 0.00 in 95 W/m2
10:50 50.9 °F 46.2 °F 29.63 in NNW 1 mph 2 mph 84% 0.00 in 113 W/m2
10:55 50.6 °F 46.3 °F 29.63 in NNW 1 mph 2 mph 85% 0.00 in 107 W/m2
11:00 50.5 °F 46.5 °F 29.63 in NNW 1 mph 3 mph 86% 0.00 in 120 W/m2
11:05 50.3 °F 46.3 °F 29.63 in NNW 2 mph 3 mph 86% 0.00 in 104 W/m2
11:10 50.2 °F 46.2 °F 29.63 in NNW 2 mph 2 mph 86% 0.08 in 104 W/m2
11:15 49.9 °F 46.2 °F 29.63 in NNW 2 mph 2 mph 87% 0.16 in 148 W/m2
11:20 49.8 °F 46.1 °F 29.63 in NNW 1 mph 2 mph 87% 0.08 in 151 W/m2
11:25 49.7 °F 46 °F 29.62 in NNW 1 mph 2 mph 87% 0.08 in 144 W/m2
11:30 49.8 °F 46.4 °F 29.62 in NNW 1 mph 1 mph 88% 0.06 in 132 W/m2
11:35 49.9 °F 46.8 °F 29.62 in NNW 1 mph 1 mph 89% 0.05 in 137 W/m2
11:40 50 °F 46.9 °F 29.62 in NNW 1 mph 1 mph 89% 0.05 in 127 W/m2
11:45 50.2 °F 47.4 °F 29.62 in NNW 1 mph 1 mph 90% 0.04 in 132 W/m2
11:50 50.3 °F 47.5 °F 29.62 in NNW 1 mph 1 mph 90% 0.00 in 130 W/m2
11:55 50.2 °F 47.4 °F 29.62 in NNW 1 mph 1 mph 90% 0.00 in 148 W/m2
12:15 51.1 °F 48.6 °F 29.62 in Calm   2 mph 91% 0.00 in 234 W/m2
12:20 51.6 °F 49.1 °F 29.62 in NNW 1 mph 1 mph 91% 0.00 in 239 W/m2
12:25 51.7 °F 49.2 °F 29.62 in NNW 1 mph 1 mph 91% 0.00 in 239 W/m2
12:30 52 °F 49.7 °F 29.62 in NNW 1 mph 1 mph 92% 0.00 in 248 W/m2
12:35 52.1 °F 49.8 °F 29.62 in NNW 1 mph 1 mph 92% 0.00 in 262 W/m2
12:40 52.3 °F 50 °F 29.62 in NNW 1 mph 1 mph 92% 0.00 in 230 W/m2
12:45 52.3 °F 49.8 °F 29.62 in NNW 1 mph 2 mph 91% 0.00 in 241 W/m2
12:50 52.2 °F 49.7 °F 29.62 in NNW 1 mph 1 mph 91% 0.00 in 185 W/m2
12:55 52.3 °F 49.8 °F 29.61 in NNW 1 mph 1 mph 91% 0.00 in 162 W/m2
13:00 52.3 °F 49.8 °F 29.61 in NNW 1 mph 2 mph 91% 0.00 in 153 W/m2
13:05 52.1 °F 49.6 °F 29.61 in NNW 2 mph 3 mph 91% 0.00 in 127 W/m2
13:10 51.9 °F 49.4 °F 29.61 in NE 2 mph 3 mph 91% 0.00 in 120 W/m2
13:15 51.6 °F 48.8 °F 29.61 in North 3 mph 3 mph 90% 0.00 in 134 W/m2
13:20 51.2 °F 48.4 °F 29.61 in North 3 mph 3 mph 90% 0.00 in 148 W/m2
13:25 50.9 °F 47.8 °F 29.61 in North 2 mph 3 mph 89% 0.00 in 135 W/m2
13:30 50.5 °F 47.4 °F 29.61 in NNE 2 mph 3 mph 89% 0.00 in 121 W/m2
13:35 50 °F 46.9 °F 29.60 in NE 3 mph 4 mph 89% 0.00 in 111 W/m2
13:40 49.8 °F 46.7 °F 29.61 in NE 3 mph 3 mph 89% 0.00 in 95 W/m2
13:45 49.7 °F 46.6 °F 29.61 in NNE 3 mph 3 mph 89% 0.00 in 90 W/m2
13:50 49.5 °F 46.4 °F 29.61 in NE 3 mph 3 mph 89% 0.00 in 79 W/m2
13:55 49.3 °F 46.2 °F 29.60 in NE 3 mph 3 mph 89% 0.00 in 91 W/m2
14:00 49.2 °F 46.1 °F 29.60 in NE 3 mph 3 mph 89% 0.00 in 86 W/m2
14:05 49.2 °F 46.4 °F 29.60 in North 3 mph 3 mph 90% 0.00 in 91 W/m2
14:10 49.2 °F 46.4 °F 29.60 in NE 3 mph 3 mph 90% 0.00 in 95 W/m2
14:15 49.3 °F 46.5 °F 29.60 in NNE 2 mph 3 mph 90% 0.00 in 100 W/m2
14:20 49.4 °F 46.6 °F 29.60 in ENE 3 mph 3 mph 90% 0.00 in 97 W/m2
14:25 49.6 °F 47.1 °F 29.60 in NE 3 mph 3 mph 91% 0.00 in 88 W/m2
14:30 49.8 °F 47.3 °F 29.60 in North 3 mph 3 mph 91% 0.00 in 93 W/m2
14:35 49.7 °F 47.2 °F 29.60 in NE 3 mph 3 mph 91% 0.00 in 88 W/m2
14:40 49.7 °F 47.2 °F 29.60 in NNW 3 mph 3 mph 91% 0.00 in 62 W/m2
14:45 49.6 °F 47.1 °F 29.59 in NE 3 mph 3 mph 91% 0.00 in 72 W/m2
14:50 49.4 °F 46.9 °F 29.59 in North 3 mph 3 mph 91% 0.00 in 83 W/m2
14:55 49.4 °F 46.9 °F 29.59 in NNW 3 mph 3 mph 91% 0.00 in 95 W/m2
15:00 49.3 °F 46.8 °F 29.60 in North 3 mph 3 mph 91% 0.00 in 128 W/m2
15:05 49.4 °F 46.9 °F 29.59 in North 3 mph 3 mph 91% 0.00 in 309 W/m2
15:10 49.7 °F 47.2 °F 29.59 in North 3 mph 3 mph 91% 0.00 in 327 W/m2
15:15 50 °F 47.8 °F 29.59 in North 3 mph 3 mph 92% 0.00 in 199 W/m2
15:20 50.2 °F 48 °F 29.59 in North 2 mph 2 mph 92% 0.00 in 114 W/m2
15:25 50.3 °F 47.8 °F 29.58 in NNW 2 mph 2 mph 91% 0.00 in 97 W/m2
15:30 50.3 °F 47.8 °F 29.59 in North 2 mph 3 mph 91% 0.00 in 91 W/m2
15:35 50.3 °F 47.8 °F 29.58 in North 2 mph 3 mph 91% 0.00 in 83 W/m2
15:40 50.3 °F 47.8 °F 29.59 in North 2 mph 2 mph 91% 0.00 in 72 W/m2
15:45 50.4 °F 47.9 °F 29.58 in North 2 mph 2 mph 91% 0.00 in 76 W/m2
15:50 50.4 °F 47.9 °F 29.59 in North 2 mph 3 mph 91% 0.00 in 84 W/m2
15:55 50.3 °F 47.8 °F 29.58 in NNW 2 mph 3 mph 91% 0.00 in 93 W/m2
16:00 50.3 °F 47.8 °F 29.58 in North 2 mph 2 mph 91% 0.00 in 102 W/m2
16:05 50.3 °F 47.8 °F 29.58 in NNE 2 mph 3 mph 91% 0.00 in 125 W/m2
16:10 50.3 °F 47.8 °F 29.58 in North 2 mph 2 mph 91% 0.00 in 93 W/m2
16:15 50.3 °F 47.8 °F 29.58 in North 2 mph 2 mph 91% 0.00 in 132 W/m2
16:20 50.3 °F 47.8 °F 29.58 in North 2 mph 6 mph 91% 0.00 in 179 W/m2
16:25 50.3 °F 47.8 °F 29.58 in NNE 3 mph 6 mph 91% 0.00 in 190 W/m2
16:30 50.3 °F 47.8 °F 29.58 in NNE 3 mph 3 mph 91% 0.00 in 248 W/m2
16:35 50.3 °F 47.8 °F 29.58 in NNE 3 mph 3 mph 91% 0.00 in 225 W/m2
16:40 50.2 °F 47.7 °F 29.58 in NNE 3 mph 3 mph 91% 0.00 in 202 W/m2
16:45 49.9 °F 47.1 °F 29.58 in North 3 mph 3 mph 90% 0.00 in 162 W/m2
16:50 49.8 °F 47 °F 29.58 in NNE 3 mph 3 mph 90% 0.00 in 90 W/m2
16:55 49.5 °F 46.7 °F 29.58 in NNE 3 mph 4 mph 90% 0.00 in 74 W/m2
17:00 49.3 °F 46.5 °F 29.59 in NE 3 mph 5 mph 90% 0.00 in 65 W/m2
17:05 49.1 °F 46.3 °F 29.59 in North 3 mph 5 mph 90% 0.00 in 53 W/m2
17:10 48.8 °F 46 °F 29.59 in NNE 3 mph 4 mph 90% 0.00 in 40 W/m2
17:15 48.6 °F 45.8 °F 29.59 in NNE 3 mph 4 mph 90% 0.00 in 42 W/m2
17:20 48.4 °F 45.6 °F 29.59 in NNE 3 mph 3 mph 90% 0.00 in 47 W/m2
17:25 48.2 °F 45.7 °F 29.59 in North 3 mph 3 mph 91% 0.00 in 49 W/m2
17:30 48.1 °F 45.6 °F 29.59 in North 3 mph 4 mph 91% 0.00 in 46 W/m2
17:35 47.9 °F 45.4 °F 29.59 in NNE 3 mph 4 mph 91% 0.00 in 58 W/m2
17:40 47.8 °F 45.3 °F 29.59 in East 3 mph 6 mph 91% 0.00 in 83 W/m2
17:45 47.8 °F 45.3 °F 29.59 in North 3 mph 6 mph 91% 0.00 in 67 W/m2
17:50 47.7 °F 45.2 °F 29.59 in NNE 3 mph 3 mph 91% 0.00 in 44 W/m2
17:55 47.6 °F 45.1 °F 29.59 in NE 3 mph 4 mph 91% 0.00 in 53 W/m2
18:00 47.4 °F 44.9 °F 29.59 in North 3 mph 3 mph 91% 0.00 in 76 W/m2
18:05 47.2 °F 44.7 °F 29.59 in North 4 mph 4 mph 91% 0.04 in 44 W/m2
18:10 47.2 °F 45 °F 29.59 in NE 3 mph 3 mph 92% 0.04 in 23 W/m2
18:15 47 °F 44.5 °F 29.59 in NE 3 mph 3 mph 91% 0.04 in 21 W/m2
18:20 47 °F 44.5 °F 29.59 in NNE 3 mph 3 mph 91% 0.00 in 44 W/m2
18:25 46.9 °F 44.7 °F 29.59 in NE 3 mph 3 mph 92% 0.00 in 37 W/m2
18:30 47 °F 44.8 °F 29.59 in NNE 3 mph 3 mph 92% 0.00 in 30 W/m2
18:35 47 °F 44.8 °F 29.59 in NE 2 mph 3 mph 92% 0.00 in 47 W/m2
18:40 47.2 °F 45 °F 29.59 in NE 2 mph 3 mph 92% 0.00 in 63 W/m2
18:50 47.3 °F 45.1 °F 29.59 in North 2 mph 2 mph 92% 0.00 in 49 W/m2
18:55 47.4 °F 45.2 °F 29.59 in NNE 2 mph 2 mph 92% 0.00 in 46 W/m2
19:00 47.4 °F 45.2 °F 29.59 in North 2 mph 2 mph 92% 0.00 in 54 W/m2
19:05 47.4 °F 45.2 °F 29.58 in NE 2 mph 2 mph 92% 0.00 in 56 W/m2
19:10 47.3 °F 45.1 °F 29.59 in NE 2 mph 3 mph 92% 0.00 in 42 W/m2
19:15 47.3 °F 45.1 °F 29.59 in NE 2 mph 3 mph 92% 0.00 in 32 W/m2
19:20 47.4 °F 45.2 °F 29.59 in North 2 mph 2 mph 92% 0.00 in 21 W/m2
19:25 47.4 °F 45.2 °F 29.59 in North 2 mph 2 mph 92% 0.00 in 14 W/m2
19:30 47.4 °F 45.5 °F 29.59 in ENE 2 mph 4 mph 93% 0.00 in 12 W/m2
19:35 47.4 °F 45.5 °F 29.59 in NNE 2 mph 4 mph 93% 0.00 in 11 W/m2
19:40 47.4 °F 45.5 °F 29.59 in NNE 2 mph 2 mph 93% 0.00 in 11 W/m2
19:45 47.4 °F 45.5 °F 29.59 in NE 2 mph 2 mph 93% 0.00 in 11 W/m2
19:50 47.5 °F 45.6 °F 29.59 in North 2 mph 3 mph 93% 0.00 in 7 W/m2
19:55 47.4 °F 45.5 °F 29.59 in North 2 mph 3 mph 93% 0.00 in 5 W/m2
20:00 47.4 °F 45.5 °F 29.59 in North 2 mph 4 mph 93% 0.00 in 5 W/m2
20:05 47.3 °F 45.4 °F 29.60 in North 2 mph 4 mph 93% 0.00 in 5 W/m2
20:10 47.2 °F 45.3 °F 29.60 in North 3 mph 3 mph 93% 0.00 in 7 W/m2
20:15 47 °F 45.1 °F 29.60 in NNW 3 mph 4 mph 93% 0.00 in 0 W/m2
20:20 46.9 °F 45 °F 29.60 in NNW 3 mph 3 mph 93% 0.00 in 0 W/m2
20:25 46.9 °F 45 °F 29.60 in NNW 2 mph 5 mph 93% 0.00 in 0 W/m2
20:30 46.8 °F 44.9 °F 29.60 in NNW 1 mph 3 mph 93% 0.00 in 0 W/m2
20:35 46.7 °F 44.8 °F 29.61 in NNW 2 mph 3 mph 93% 0.00 in 0 W/m2
20:40 46.7 °F 44.8 °F 29.61 in NNW 2 mph 2 mph 93% 0.00 in 0 W/m2
20:45 46.7 °F 44.8 °F 29.61 in North 2 mph 2 mph 93% 0.00 in 0 W/m2
20:50 46.7 °F 44.8 °F 29.60 in North 2 mph 2 mph 93% 0.00 in 0 W/m2
20:55 46.7 °F 44.8 °F 29.60 in North 2 mph 2 mph 93% 0.00 in 0 W/m2
21:00 46.6 °F 44.7 °F 29.60 in North 2 mph 3 mph 93% 0.00 in 0 W/m2
21:05 46.5 °F 44.6 °F 29.60 in NNW 2 mph 4 mph 93% 0.00 in 0 W/m2
21:10 46.5 °F 44.6 °F 29.61 in North 2 mph 2 mph 93% 0.00 in 0 W/m2
21:15 46.5 °F 44.6 °F 29.60 in NNW 2 mph 2 mph 93% 0.00 in 0 W/m2
21:20 46.3 °F 44.4 °F 29.60 in North 2 mph 2 mph 93% 0.00 in 0 W/m2
21:25 46.3 °F 44.4 °F 29.61 in NNW 2 mph 4 mph 93% 0.00 in 0 W/m2
21:30 46.3 °F 44.4 °F 29.61 in NNW 3 mph 3 mph 93% 0.00 in 0 W/m2
21:35 46.2 °F 44.3 °F 29.62 in NNW 3 mph 3 mph 93% 0.00 in 0 W/m2
21:40 46.3 °F 44.4 °F 29.62 in NNW 2 mph 2 mph 93% 0.00 in 0 W/m2
21:45 46.2 °F 44.3 °F 29.62 in NNW 1 mph 2 mph 93% 0.00 in 0 W/m2
21:50 46.2 °F 44.3 °F 29.62 in NNW 1 mph 2 mph 93% 0.00 in 0 W/m2
21:55 46.3 °F 44.4 °F 29.62 in NNW 1 mph 2 mph 93% 0.00 in 0 W/m2
22:00 46.4 °F 44.5 °F 29.62 in NNW 1 mph 2 mph 93% 0.00 in 0 W/m2
22:05 46.4 °F 44.5 °F 29.62 in North 2 mph 2 mph 93% 0.00 in 0 W/m2
22:10 46.5 °F 44.6 °F 29.63 in North 2 mph 2 mph 93% 0.00 in 0 W/m2
22:15 46.5 °F 44.6 °F 29.63 in North 2 mph 2 mph 93% 0.00 in 0 W/m2
22:20 46.5 °F 44.6 °F 29.63 in North 2 mph 2 mph 93% 0.00 in 0 W/m2
22:25 46.5 °F 44.6 °F 29.63 in North 1 mph 2 mph 93% 0.00 in 0 W/m2
22:30 46.6 °F 44.7 °F 29.62 in North 1 mph 2 mph 93% 0.00 in 0 W/m2
22:35 46.6 °F 44.7 °F 29.62 in North 1 mph 2 mph 93% 0.00 in 0 W/m2
22:40 46.6 °F 44.7 °F 29.62 in North 1 mph 1 mph 93% 0.00 in 0 W/m2
22:45 46.7 °F 44.8 °F 29.62 in North 1 mph 2 mph 93% 0.00 in 0 W/m2
22:50 46.7 °F 45.1 °F 29.62 in North 1 mph 1 mph 94% 0.00 in 0 W/m2
22:55 46.9 °F 45 °F 29.62 in North 1 mph 2 mph 93% 0.00 in 0 W/m2
23:00 46.9 °F 45 °F 29.61 in North 1 mph 1 mph 93% 0.00 in 0 W/m2
23:05 47 °F 45.1 °F 29.61 in North 1 mph 2 mph 93% 0.00 in 0 W/m2
23:10 47.1 °F 45.2 °F 29.61 in North 1 mph 1 mph 93% 0.00 in 0 W/m2
23:15 47.2 °F 45.3 °F 29.61 in North 1 mph 1 mph 93% 0.00 in 0 W/m2
23:20 47.2 °F 45.3 °F 29.61 in North 1 mph 1 mph 93% 0.00 in 0 W/m2
23:25 47.4 °F 45.8 °F 29.61 in North 1 mph 1 mph 94% 0.00 in 0 W/m2
23:30 47.5 °F 45.9 °F 29.61 in Calm   1 mph 94% 0.00 in 0 W/m2
23:35 47.5 °F 45.9 °F 29.61 in Calm   1 mph 94% 0.00 in 0 W/m2
23:40 47.6 °F 46 °F 29.61 in NW 1 mph 3 mph 94% 0.00 in 0 W/m2
23:45 47.7 °F 46.1 °F 29.61 in NW 1 mph 3 mph 94% 0.00 in 0 W/m2
23:50 47.9 °F 46.3 °F 29.61 in NW 1 mph 1 mph 94% 0.00 in 0 W/m2
23:55 48 °F 46.4 °F 29.60 in Calm   1 mph 94% 0.00 in 0 W/m2
Sand Point, Michigan, USA
Compliments of Weather Underground - 2 mb